Time;durP1;ratioP1;P1;durP2;ratioP2;P2;SDS_P1;SDS_P2;PMS_P1;PMS_P2;Temp;Humidity;BMP_temperature;BMP_pressure;BME280_temperature;BME280_humidity;BME280_pressure;Samples;Min_cycle;Max_cycle;Signal;HPM_P1;HPM_P2
2024/01/05 00:00:29;;;;;;;16.00;8.57;;;3.80;99.90;;;;;;5022611;28;20184;-44
2024/01/05 00:02:59;;;;;;;12.00;7.88;;;3.80;99.90;;;;;;5022787;28;20279;-47
2024/01/05 00:05:25;;;;;;;14.32;8.55;;;3.90;99.90;;;;;;5022783;28;20203;-49
2024/01/05 00:07:52;;;;;;;14.85;9.85;;;3.80;99.90;;;;;;5015336;28;20643;-42
2024/01/05 00:10:18;;;;;;;16.05;8.70;;;3.90;99.90;;;;;;5022877;28;20241;-42
2024/01/05 00:12:44;;;;;;;15.27;9.10;;;3.90;99.90;;;;;;5022740;28;20600;-46
2024/01/05 00:15:13;;;;;;;16.05;8.80;;;3.80;99.90;;;;;;5022694;28;20204;-48
2024/01/05 00:17:41;;;;;;;13.48;8.07;;;3.80;99.90;;;;;;5022055;28;20203;-41
2024/01/05 00:20:08;;;;;;;14.77;9.13;;;3.80;99.90;;;;;;5016851;28;20183;-44
2024/01/05 00:22:34;;;;;;;15.15;9.30;;;3.80;99.90;;;;;;5022300;28;20211;-43
2024/01/05 00:25:00;;;;;;;14.82;9.82;;;3.80;99.90;;;;;;5022241;28;20184;-43
2024/01/05 00:27:26;;;;;;;13.68;8.18;;;3.80;99.90;;;;;;5022695;28;20191;-41
2024/01/05 00:29:52;;;;;;;17.00;9.77;;;3.80;99.90;;;;;;5021760;28;20194;-42
2024/01/05 00:32:18;;;;;;;17.42;9.45;;;3.80;99.90;;;;;;5022200;28;20344;-41
2024/01/05 00:34:44;;;;;;;16.58;8.88;;;3.70;99.90;;;;;;5021984;28;20250;-46
2024/01/05 00:37:09;;;;;;;10.60;7.03;;;3.70;99.90;;;;;;5021723;28;20188;-44
2024/01/05 00:39:35;;;;;;;15.85;9.98;;;3.70;99.90;;;;;;5022069;28;20187;-41
2024/01/05 00:42:02;;;;;;;14.60;9.13;;;3.70;99.90;;;;;;5017211;28;20665;-45
2024/01/05 00:44:28;;;;;;;17.60;11.18;;;3.60;99.90;;;;;;5022240;28;20187;-40
2024/01/05 00:46:54;;;;;;;15.40;9.95;;;3.60;99.90;;;;;;5021889;28;20247;-43
2024/01/05 00:49:20;;;;;;;19.65;11.32;;;3.60;99.90;;;;;;5021483;28;20192;-42
2024/01/05 00:51:46;;;;;;;20.40;10.73;;;3.60;99.90;;;;;;5021914;28;20195;-41
2024/01/05 00:54:12;;;;;;;19.88;10.60;;;3.60;99.90;;;;;;5014070;28;20753;-47
2024/01/05 00:56:38;;;;;;;17.05;10.30;;;3.70;99.90;;;;;;5022103;28;20192;-42
2024/01/05 00:59:05;;;;;;;15.48;10.15;;;3.70;99.90;;;;;;5021553;28;20187;-43
2024/01/05 01:01:31;;;;;;;18.83;11.63;;;3.70;99.90;;;;;;5021765;28;20180;-43
2024/01/05 01:03:57;;;;;;;16.48;11.65;;;3.60;99.90;;;;;;5021573;28;20758;-44
2024/01/05 01:06:23;;;;;;;21.73;11.27;;;3.60;99.90;;;;;;5021987;28;20192;-50
2024/01/05 01:08:49;;;;;;;18.38;11.82;;;3.60;99.90;;;;;;5016664;28;20230;-48
2024/01/05 01:11:15;;;;;;;18.38;11.02;;;3.50;99.90;;;;;;5021593;28;20195;-45
2024/01/05 01:13:42;;;;;;;19.98;11.98;;;3.60;99.90;;;;;;5020424;28;20207;-44
2024/01/05 01:16:09;;;;;;;17.50;11.60;;;3.60;99.90;;;;;;5021526;28;20646;-42
2024/01/05 01:18:35;;;;;;;19.70;9.98;;;3.50;99.90;;;;;;5021734;28;20276;-45
2024/01/05 01:21:01;;;;;;;18.88;10.90;;;3.50;99.90;;;;;;5021581;28;20641;-42
2024/01/05 01:23:27;;;;;;;17.58;10.68;;;3.50;99.90;;;;;;5021221;28;20188;-44
2024/01/05 01:25:52;;;;;;;19.55;10.73;;;3.50;99.90;;;;;;5022078;28;20550;-42
2024/01/05 01:28:18;;;;;;;17.40;9.82;;;3.50;99.90;;;;;;5021582;28;20188;-42
2024/01/05 01:30:44;;;;;;;18.45;11.55;;;3.50;99.90;;;;;;5021254;28;20192;-41
2024/01/05 01:33:10;;;;;;;20.02;10.05;;;3.50;99.90;;;;;;5021140;28;20195;-43
2024/01/05 01:35:36;;;;;;;15.38;9.30;;;3.50;99.90;;;;;;5021150;28;20211;-41
2024/01/05 01:38:02;;;;;;;17.88;9.95;;;3.50;99.90;;;;;;5021352;28;20199;-40
2024/01/05 01:40:28;;;;;;;18.42;10.10;;;3.60;99.90;;;;;;5021454;28;20192;-42
2024/01/05 01:42:55;;;;;;;15.88;10.45;;;3.50;99.90;;;;;;5021521;28;20180;-42
2024/01/05 01:45:21;;;;;;;17.95;10.77;;;3.50;99.90;;;;;;5021120;28;20215;-43
2024/01/05 01:47:49;;;;;;;18.00;10.60;;;3.60;99.90;;;;;;5021918;28;20215;-40
2024/01/05 01:50:16;;;;;;;15.93;10.07;;;3.50;99.90;;;;;;5024761;28;20183;-47
2024/01/05 01:52:47;;;;;;;16.73;9.90;;;3.50;99.90;;;;;;5025334;28;20191;-44
2024/01/05 01:55:15;;;;;;;22.08;10.13;;;3.50;99.90;;;;;;5025089;28;20648;-47
2024/01/05 01:57:41;;;;;;;17.73;10.38;;;3.50;99.90;;;;;;5024742;28;20195;-40
2024/01/05 02:00:09;;;;;;;19.95;10.52;;;3.50;99.90;;;;;;5017843;28;20192;-46
2024/01/05 02:02:37;;;;;;;17.67;10.52;;;3.50;99.90;;;;;;5020182;28;20277;-49
2024/01/05 02:05:05;;;;;;;18.95;11.43;;;3.50;99.90;;;;;;5025265;28;20204;-42
2024/01/05 02:07:31;;;;;;;14.32;8.38;;;3.50;99.90;;;;;;5024947;28;20195;-44
2024/01/05 02:09:57;;;;;;;16.38;9.10;;;3.50;99.90;;;;;;5024906;28;20192;-42
2024/01/05 02:12:23;;;;;;;20.00;10.60;;;3.50;99.90;;;;;;5024776;28;20199;-43
2024/01/05 02:14:48;;;;;;;19.42;10.80;;;3.60;99.90;;;;;;5004450;28;20289;-46
2024/01/05 02:17:34;;;;;;;16.63;9.90;;;3.60;99.90;;;;;;5021672;28;21232;-42
2024/01/05 02:20:01;;;;;;;19.13;10.85;;;3.50;99.90;;;;;;5019697;28;20267;-41
2024/01/05 02:22:29;;;;;;;16.70;8.35;;;3.60;99.90;;;;;;5024924;28;20249;-43
2024/01/05 02:24:57;;;;;;;21.08;11.18;;;3.60;99.90;;;;;;5021543;28;20238;-43
2024/01/05 02:27:23;;;;;;;22.58;11.00;;;3.60;99.90;;;;;;5024983;28;20192;-42
2024/01/05 02:29:49;;;;;;;16.73;8.32;;;3.60;99.90;;;;;;5024353;28;20202;-39
2024/01/05 02:32:16;;;;;;;20.13;10.75;;;3.60;99.90;;;;;;5024403;28;20188;-43
2024/01/05 02:34:42;;;;;;;18.98;11.05;;;3.50;99.90;;;;;;5024280;28;20213;-45
2024/01/05 02:37:08;;;;;;;25.25;10.77;;;3.50;99.90;;;;;;5024538;28;20180;-43
2024/01/05 02:39:34;;;;;;;21.10;10.68;;;3.50;99.90;;;;;;5024039;28;20184;-49
2024/01/05 02:42:00;;;;;;;18.77;10.55;;;3.50;99.90;;;;;;5006828;28;20818;-42
2024/01/05 02:44:26;;;;;;;20.70;8.65;;;3.40;99.90;;;;;;5024429;28;20674;-43
2024/01/05 02:46:52;;;;;;;21.10;11.02;;;3.40;99.90;;;;;;5023892;28;20228;-44
2024/01/05 02:49:18;;;;;;;17.73;10.80;;;3.40;99.90;;;;;;5024082;28;20198;-44
2024/01/05 02:51:44;;;;;;;23.20;11.10;;;3.40;99.90;;;;;;5024294;28;20666;-41
2024/01/05 02:54:10;;;;;;;20.48;11.20;;;3.40;99.90;;;;;;5002490;28;20211;-40
2024/01/05 02:56:36;;;;;;;22.88;10.38;;;3.40;99.90;;;;;;5022829;28;20283;-39
2024/01/05 02:59:04;;;;;;;19.15;10.18;;;3.40;99.90;;;;;;5023669;28;20283;-43
2024/01/05 03:01:30;;;;;;;24.15;12.23;;;3.40;99.90;;;;;;5006034;28;20183;-41
2024/01/05 03:03:57;;;;;;;20.42;11.02;;;3.40;99.90;;;;;;5024003;28;20202;-44
2024/01/05 03:06:23;;;;;;;20.42;9.93;;;3.40;99.90;;;;;;5023705;28;20302;-40
2024/01/05 03:08:50;;;;;;;23.27;11.35;;;3.40;99.90;;;;;;5018432;28;20200;-42
2024/01/05 03:11:15;;;;;;;19.27;10.63;;;3.40;99.90;;;;;;5023757;28;20192;-42
2024/01/05 03:13:41;;;;;;;20.60;11.70;;;3.30;99.90;;;;;;5024074;28;20245;-42
2024/01/05 03:16:07;;;;;;;20.23;10.57;;;3.40;99.90;;;;;;5023742;28;20279;-52
2024/01/05 03:18:33;;;;;;;16.85;9.40;;;3.40;99.90;;;;;;5023460;28;20655;-40
2024/01/05 03:20:59;;;;;;;17.15;9.98;;;3.30;99.90;;;;;;5023643;28;20218;-45
2024/01/05 03:23:25;;;;;;;22.17;9.15;;;3.40;99.90;;;;;;5023282;28;20192;-47
2024/01/05 03:25:52;;;;;;;19.63;11.00;;;3.30;99.90;;;;;;5023787;28;20275;-42
2024/01/05 03:28:18;;;;;;;19.45;10.95;;;3.30;99.90;;;;;;5023155;28;20554;-43
2024/01/05 03:30:43;;;;;;;22.13;12.07;;;3.30;99.90;;;;;;5023419;28;20188;-44
2024/01/05 03:33:09;;;;;;;17.75;10.05;;;3.30;99.90;;;;;;5017566;28;21197;-41
2024/01/05 03:35:39;;;;;;;21.27;10.95;;;3.30;99.90;;;;;;5023532;28;20212;-47
2024/01/05 03:38:04;;;;;;;23.35;11.68;;;3.30;99.90;;;;;;5017606;28;20202;-50
2024/01/05 03:40:30;;;;;;;21.38;11.25;;;3.30;99.90;;;;;;5023027;28;20192;-47
2024/01/05 03:42:56;;;;;;;27.25;12.60;;;3.30;99.90;;;;;;5023219;28;20184;-48
2024/01/05 03:45:22;;;;;;;21.13;11.60;;;3.30;99.90;;;;;;5022883;28;20215;-43
2024/01/05 03:47:48;;;;;;;22.10;12.80;;;3.30;99.90;;;;;;5018835;28;20278;-45
2024/01/05 03:50:14;;;;;;;22.60;10.88;;;3.40;99.90;;;;;;5023240;28;20241;-47
2024/01/05 03:52:40;;;;;;;27.80;12.15;;;3.30;99.90;;;;;;5022852;28;20190;-42
2024/01/05 03:55:06;;;;;;;24.52;12.38;;;3.40;99.90;;;;;;5022910;28;20216;-42
2024/01/05 03:57:32;;;;;;;20.20;11.73;;;3.40;99.90;;;;;;5022832;28;21302;-46
2024/01/05 03:59:58;;;;;;;21.88;11.85;;;3.40;99.90;;;;;;5022872;28;20326;-42
2024/01/05 04:02:24;;;;;;;24.98;11.63;;;3.30;99.90;;;;;;5019278;28;20176;-48
2024/01/05 04:04:49;;;;;;;18.40;10.98;;;3.30;99.90;;;;;;5018378;28;20195;-50
2024/01/05 04:07:16;;;;;;;18.20;10.45;;;3.40;99.90;;;;;;5022828;28;20191;-41
2024/01/05 04:09:41;;;;;;;22.40;11.80;;;3.40;99.90;;;;;;5022537;28;20184;-49
2024/01/05 04:12:07;;;;;;;14.35;8.38;;;3.40;99.90;;;;;;5017982;28;20299;-44
2024/01/05 04:14:35;;;;;;;19.70;11.10;;;3.30;99.90;;;;;;5022484;28;20203;-40
2024/01/05 04:17:01;;;;;;;19.75;10.88;;;3.30;99.90;;;;;;5022610;28;20206;-45
2024/01/05 04:19:29;;;;;;;18.55;9.95;;;3.30;99.90;;;;;;5022742;28;20188;-43
2024/01/05 04:21:55;;;;;;;21.67;10.23;;;3.30;99.90;;;;;;5014731;28;20190;-43
2024/01/05 04:24:21;;;;;;;22.58;11.65;;;3.30;99.90;;;;;;5022672;28;20192;-40
2024/01/05 04:26:48;;;;;;;20.95;12.15;;;3.30;99.90;;;;;;5022117;28;20202;-40
2024/01/05 04:29:14;;;;;;;20.98;11.00;;;3.30;99.90;;;;;;5021887;28;20192;-50
2024/01/05 04:31:40;;;;;;;21.17;11.68;;;3.30;99.90;;;;;;5021913;28;20196;-46
2024/01/05 04:34:06;;;;;;;21.60;10.93;;;3.30;99.90;;;;;;5022091;28;20647;-40
2024/01/05 04:36:31;;;;;;;21.45;11.57;;;3.30;99.90;;;;;;5022325;28;20183;-42
2024/01/05 04:38:57;;;;;;;21.23;11.65;;;3.30;99.90;;;;;;5022110;28;20672;-43
2024/01/05 04:41:25;;;;;;;16.90;9.90;;;3.30;99.90;;;;;;5022094;28;20188;-45
2024/01/05 04:43:50;;;;;;;20.15;10.27;;;3.30;99.90;;;;;;5022176;28;21386;-48
2024/01/05 04:46:17;;;;;;;19.45;11.43;;;3.30;99.90;;;;;;5021857;28;20251;-42
2024/01/05 04:48:43;;;;;;;16.77;8.82;;;3.30;99.90;;;;;;5022262;28;20188;-49
2024/01/05 04:51:09;;;;;;;18.25;10.13;;;3.30;99.90;;;;;;5020930;28;20270;-49
2024/01/05 04:53:35;;;;;;;16.73;9.90;;;3.30;99.90;;;;;;5014758;28;20185;-46
2024/01/05 04:56:01;;;;;;;22.40;11.15;;;3.30;99.90;;;;;;5021691;28;20816;-48
2024/01/05 04:58:27;;;;;;;20.83;11.25;;;3.30;99.90;;;;;;5021715;28;20238;-49
2024/01/05 05:00:53;;;;;;;17.50;10.35;;;3.30;99.90;;;;;;5021674;28;21292;-44
2024/01/05 05:03:20;;;;;;;16.05;8.85;;;3.30;99.90;;;;;;5021406;28;20194;-42
2024/01/05 05:05:46;;;;;;;21.58;11.38;;;3.30;99.90;;;;;;5021712;28;20191;-41
2024/01/05 05:08:13;;;;;;;17.23;9.55;;;3.30;99.90;;;;;;5021769;28;20649;-44
2024/01/05 05:10:39;;;;;;;23.42;11.70;;;3.30;99.90;;;;;;5021733;28;20202;-41
2024/01/05 05:13:05;;;;;;;20.08;11.27;;;3.30;99.90;;;;;;5021457;28;20274;-43
2024/01/05 05:15:31;;;;;;;18.88;11.23;;;3.30;99.90;;;;;;5021336;28;20242;-43
2024/01/05 05:17:57;;;;;;;20.58;10.90;;;3.30;99.90;;;;;;5021722;28;20202;-44
2024/01/05 05:20:23;;;;;;;19.17;10.55;;;3.30;99.90;;;;;;5021645;28;20200;-45
2024/01/05 05:22:48;;;;;;;16.88;10.20;;;3.30;99.90;;;;;;5021621;28;20269;-45
2024/01/05 05:25:14;;;;;;;18.20;10.57;;;3.30;99.90;;;;;;5002151;28;20192;-42
2024/01/05 05:27:40;;;;;;;18.65;11.27;;;3.30;99.90;;;;;;5004351;28;20289;-46
2024/01/05 05:30:08;;;;;;;18.02;10.70;;;3.30;99.90;;;;;;5021350;28;20279;-43
2024/01/05 05:32:33;;;;;;;19.08;10.60;;;3.30;99.90;;;;;;5021006;28;20191;-42
2024/01/05 05:35:00;;;;;;;19.60;11.02;;;3.40;99.90;;;;;;5015839;28;20208;-42
2024/01/05 05:37:26;;;;;;;16.60;10.38;;;3.40;99.90;;;;;;5021374;28;20184;-44
2024/01/05 05:39:52;;;;;;;17.58;10.32;;;3.40;99.90;;;;;;5021347;28;20639;-47
2024/01/05 05:42:18;;;;;;;16.27;9.60;;;3.40;99.90;;;;;;5021383;28;20186;-50
2024/01/05 05:44:43;;;;;;;14.85;9.57;;;3.40;99.90;;;;;;5020274;28;20828;-41
2024/01/05 05:47:09;;;;;;;18.50;10.60;;;3.40;99.90;;;;;;5020047;28;20236;-44
2024/01/05 05:49:36;;;;;;;15.30;9.05;;;3.50;99.90;;;;;;5021321;28;20238;-40
2024/01/05 05:52:04;;;;;;;18.38;11.15;;;3.50;99.90;;;;;;5020274;28;20207;-38
2024/01/05 05:54:29;;;;;;;18.23;10.27;;;3.50;99.90;;;;;;5020701;28;20243;-43
2024/01/05 05:56:56;;;;;;;19.40;10.75;;;3.50;99.90;;;;;;5021056;28;20222;-41
2024/01/05 05:59:23;;;;;;;19.10;10.90;;;3.50;99.90;;;;;;5018377;28;20242;-43
2024/01/05 06:01:48;;;;;;;18.35;11.10;;;3.50;99.90;;;;;;5020853;28;20731;-43
2024/01/05 06:04:14;;;;;;;20.67;11.80;;;3.60;99.90;;;;;;5019881;28;20180;-44
2024/01/05 06:06:40;;;;;;;18.90;11.43;;;3.60;99.90;;;;;;5020673;28;21023;-40
2024/01/05 06:09:07;;;;;;;21.65;11.20;;;3.60;99.90;;;;;;5016217;28;20196;-43
2024/01/05 06:11:33;;;;;;;15.73;10.07;;;3.60;99.90;;;;;;5020727;28;20906;-46
2024/01/05 06:13:59;;;;;;;20.27;11.18;;;3.50;99.90;;;;;;5020910;28;21073;-43
2024/01/05 06:16:25;;;;;;;19.67;11.38;;;3.50;99.90;;;;;;5020884;28;20192;-43
2024/01/05 06:18:51;;;;;;;19.13;11.05;;;3.60;99.90;;;;;;5019591;28;20199;-46
2024/01/05 06:21:17;;;;;;;16.92;11.27;;;3.60;99.90;;;;;;5015286;28;20184;-46
2024/01/05 06:23:43;;;;;;;16.42;10.43;;;3.60;99.90;;;;;;5019627;28;20192;-46
2024/01/05 06:26:09;;;;;;;14.55;9.18;;;3.60;99.90;;;;;;5017892;28;20183;-45
2024/01/05 06:28:35;;;;;;;16.15;9.90;;;3.60;99.90;;;;;;5017041;28;20180;-44
2024/01/05 06:31:00;;;;;;;15.82;10.48;;;3.60;99.90;;;;;;5020431;28;20404;-50
2024/01/05 06:33:26;;;;;;;16.02;9.88;;;3.60;99.90;;;;;;5020603;28;20241;-46
2024/01/05 06:35:52;;;;;;;20.23;11.75;;;3.70;99.90;;;;;;5023180;28;20273;-44
2024/01/05 06:38:18;;;;;;;14.90;9.77;;;3.60;99.90;;;;;;5024396;28;20188;-42
2024/01/05 06:40:44;;;;;;;16.85;10.80;;;3.70;99.90;;;;;;5022363;28;20188;-44
2024/01/05 06:43:10;;;;;;;19.67;11.63;;;3.70;99.90;;;;;;5023829;28;20674;-41
2024/01/05 06:45:37;;;;;;;19.13;10.70;;;3.70;99.90;;;;;;5023939;28;20298;-43
2024/01/05 06:48:09;;;;;;;19.77;10.82;;;3.70;99.90;;;;;;5023992;28;20192;-44
2024/01/05 06:50:35;;;;;;;21.13;11.52;;;3.70;99.90;;;;;;5006237;28;20188;-43
2024/01/05 06:53:01;;;;;;;18.42;11.40;;;3.70;99.90;;;;;;5020180;28;20191;-42
2024/01/05 06:55:27;;;;;;;23.25;12.48;;;3.70;99.90;;;;;;5002803;28;20612;-41
2024/01/05 06:57:53;;;;;;;18.55;10.68;;;3.70;99.90;;;;;;5016641;28;20188;-46
2024/01/05 07:00:19;;;;;;;21.02;13.02;;;3.80;99.90;;;;;;5023963;28;20188;-46
2024/01/05 07:02:45;;;;;;;20.45;11.32;;;3.80;99.90;;;;;;5019466;28;20203;-44
2024/01/05 07:05:11;;;;;;;15.18;10.77;;;3.80;99.90;;;;;;5014135;28;20200;-42
2024/01/05 07:07:39;;;;;;;16.77;10.35;;;3.80;99.90;;;;;;5023721;28;20209;-44
2024/01/05 07:10:06;;;;;;;18.02;11.18;;;3.80;99.90;;;;;;5024067;28;20285;-46
2024/01/05 07:12:32;;;;;;;18.02;10.23;;;3.80;99.90;;;;;;4998721;28;20195;-40
2024/01/05 07:14:58;;;;;;;20.42;10.98;;;3.90;99.90;;;;;;5018316;28;20211;-43
2024/01/05 07:17:24;;;;;;;16.98;10.38;;;3.90;99.90;;;;;;5015552;28;20211;-47
2024/01/05 07:19:50;;;;;;;15.50;10.77;;;3.90;99.90;;;;;;5023692;28;20191;-43
2024/01/05 07:22:16;;;;;;;17.88;10.65;;;3.90;99.90;;;;;;5023542;28;20281;-46
2024/01/05 07:24:42;;;;;;;18.42;11.20;;;3.80;99.90;;;;;;5023159;28;20199;-44
2024/01/05 07:27:10;;;;;;;16.63;11.57;;;3.90;99.90;;;;;;5023722;28;20549;-41
2024/01/05 07:29:36;;;;;;;19.48;11.35;;;3.90;99.90;;;;;;5020157;28;20195;-45
2024/01/05 07:32:04;;;;;;;19.50;12.30;;;3.90;99.90;;;;;;5018222;28;20188;-44
2024/01/05 07:34:30;;;;;;;17.45;11.02;;;3.90;99.90;;;;;;5019939;28;20727;-47
2024/01/05 07:36:56;;;;;;;18.67;10.90;;;3.90;99.90;;;;;;5022548;28;20179;-42
2024/01/05 07:39:22;;;;;;;18.55;11.90;;;3.90;99.90;;;;;;5015338;28;20222;-46
2024/01/05 07:41:49;;;;;;;19.92;12.40;;;4.00;99.90;;;;;;5018950;28;20253;-41
2024/01/05 07:44:15;;;;;;;23.20;12.88;;;4.00;99.90;;;;;;5023730;28;20192;-48
2024/01/05 07:46:42;;;;;;;19.67;12.20;;;4.00;99.90;;;;;;5022827;28;20711;-41
2024/01/05 07:49:08;;;;;;;22.00;12.98;;;4.00;99.90;;;;;;5020153;28;20196;-42
2024/01/05 07:51:34;;;;;;;21.75;12.73;;;4.00;99.90;;;;;;5018778;28;20648;-45
2024/01/05 07:54:00;;;;;;;19.08;12.07;;;4.00;99.90;;;;;;5022666;28;20219;-41
2024/01/05 07:56:26;;;;;;;22.83;13.55;;;4.10;99.90;;;;;;5022687;28;20651;-45
2024/01/05 07:58:52;;;;;;;20.48;13.32;;;4.10;99.90;;;;;;5022377;28;20192;-48
2024/01/05 08:01:20;;;;;;;18.10;10.43;;;4.10;99.90;;;;;;5022383;28;20188;-42
2024/01/05 08:03:47;;;;;;;22.40;13.73;;;4.10;99.90;;;;;;5022769;28;20246;-47
2024/01/05 08:06:16;;;;;;;19.77;12.82;;;4.10;99.90;;;;;;5018693;28;20184;-51
2024/01/05 08:08:44;;;;;;;20.80;13.32;;;4.10;99.90;;;;;;5017345;28;20195;-44
2024/01/05 08:11:10;;;;;;;24.58;13.82;;;4.10;99.90;;;;;;5022393;28;20219;-43
2024/01/05 08:13:36;;;;;;;22.95;13.55;;;4.10;99.90;;;;;;5022224;28;20218;-43
2024/01/05 08:16:03;;;;;;;23.17;13.93;;;4.20;99.90;;;;;;5022477;28;20188;-46
2024/01/05 08:18:29;;;;;;;21.42;14.13;;;4.20;99.90;;;;;;5022474;28;20198;-44
2024/01/05 08:20:55;;;;;;;27.50;14.80;;;4.20;99.90;;;;;;5022338;28;20188;-43
2024/01/05 08:23:21;;;;;;;30.70;16.38;;;4.20;99.90;;;;;;5022307;28;20622;-46
2024/01/05 08:25:47;;;;;;;26.70;16.25;;;4.20;99.90;;;;;;5021986;28;20251;-47
2024/01/05 08:28:13;;;;;;;25.70;15.77;;;4.20;99.90;;;;;;5021408;28;20191;-43
2024/01/05 08:30:39;;;;;;;25.30;15.70;;;4.20;99.90;;;;;;5022309;28;20196;-47
2024/01/05 08:33:06;;;;;;;26.90;16.10;;;4.20;99.90;;;;;;5021996;28;20195;-45
2024/01/05 08:35:34;;;;;;;27.75;15.73;;;4.20;99.90;;;;;;5004487;28;20672;-46
2024/01/05 08:38:00;;;;;;;27.33;15.98;;;4.20;99.90;;;;;;5021378;28;20192;-42
2024/01/05 08:40:28;;;;;;;25.60;15.85;;;4.30;99.90;;;;;;5022233;28;20187;-41
2024/01/05 08:42:57;;;;;;;26.60;16.67;;;4.30;99.90;;;;;;5018561;28;20361;-40
2024/01/05 08:45:24;;;;;;;27.00;17.05;;;4.30;99.90;;;;;;5021258;28;21393;-44
2024/01/05 08:48:07;;;;;;;23.35;15.63;;;4.30;99.90;;;;;;5013228;28;20600;-42
2024/01/05 08:50:34;;;;;;;31.00;17.50;;;4.40;99.90;;;;;;5021781;28;20223;-47
2024/01/05 08:53:00;;;;;;;27.65;17.15;;;4.40;99.90;;;;;;5021120;28;20194;-42
2024/01/05 08:55:26;;;;;;;27.52;15.20;;;4.40;99.90;;;;;;5017022;28;20219;-39
2024/01/05 08:57:52;;;;;;;26.55;16.90;;;4.40;99.90;;;;;;5020153;28;20375;-41
2024/01/05 09:00:21;;;;;;;29.55;16.85;;;4.40;99.90;;;;;;5021295;28;20179;-44
2024/01/05 09:02:49;;;;;;;31.55;18.20;;;4.40;99.90;;;;;;5020387;28;20200;-44
2024/01/05 09:05:15;;;;;;;26.75;18.02;;;4.40;99.90;;;;;;5021380;28;20550;-43
2024/01/05 09:07:41;;;;;;;27.17;17.85;;;4.50;99.90;;;;;;5020398;28;20195;-43
2024/01/05 09:10:08;;;;;;;29.55;17.45;;;4.50;99.90;;;;;;5021050;28;20195;-44
2024/01/05 09:12:34;;;;;;;31.48;18.42;;;4.50;99.90;;;;;;5020509;28;20219;-43
2024/01/05 09:15:00;;;;;;;29.48;17.65;;;4.50;99.90;;;;;;5017239;28;20334;-47
2024/01/05 09:17:26;;;;;;;27.45;17.63;;;4.60;99.90;;;;;;5021488;28;20180;-48
2024/01/05 09:19:52;;;;;;;26.63;16.02;;;4.60;99.90;;;;;;5021039;28;20210;-45
2024/01/05 09:22:17;;;;;;;29.65;16.92;;;4.60;99.90;;;;;;5021189;28;20184;-44
2024/01/05 09:24:43;;;;;;;24.65;15.38;;;4.70;99.90;;;;;;5020309;28;20652;-42
2024/01/05 09:27:09;;;;;;;27.25;15.35;;;4.70;99.90;;;;;;4988264;28;20225;-45
2024/01/05 09:29:35;;;;;;;23.40;15.43;;;4.70;99.90;;;;;;5015807;28;20663;-43
2024/01/05 09:32:01;;;;;;;25.08;15.70;;;4.70;99.90;;;;;;5021193;28;20211;-41
2024/01/05 09:34:27;;;;;;;19.92;14.43;;;4.80;99.90;;;;;;5017557;28;20261;-42
2024/01/05 09:36:53;;;;;;;24.20;14.00;;;4.80;99.90;;;;;;5021180;28;20191;-46
2024/01/05 09:39:39;;;;;;;24.58;15.48;;;4.80;99.90;;;;;;5016259;28;20195;-44
2024/01/05 09:42:26;;;;;;;23.02;14.85;;;4.80;99.90;;;;;;5015863;28;20615;-40
2024/01/05 09:45:12;;;;;;;21.10;13.65;;;4.80;99.90;;;;;;5015188;28;20285;-46
2024/01/05 09:48:02;;;;;;;22.60;13.40;;;4.80;99.90;;;;;;5028251;28;20329;-46
2024/01/05 09:50:52;;;;;;;20.90;14.15;;;4.80;99.90;;;;;;5018233;28;20766;-46
2024/01/05 09:53:38;;;;;;;21.10;13.90;;;4.90;99.90;;;;;;5016039;28;20291;-47
2024/01/05 09:56:26;;;;;;;20.90;14.23;;;4.90;99.90;;;;;;5012941;28;20214;-44
2024/01/05 09:59:12;;;;;;;19.67;13.68;;;4.90;99.90;;;;;;5017870;28;20295;-45
2024/01/05 10:02:02;;;;;;;23.30;15.10;;;4.90;99.90;;;;;;5018133;28;20588;-46
2024/01/05 10:04:48;;;;;;;29.90;19.67;;;4.90;99.90;;;;;;5016418;28;20200;-44
2024/01/05 10:07:43;;;;;;;23.17;14.00;;;5.00;99.90;;;;;;5017306;28;20200;-44
2024/01/05 10:10:55;;;;;;;22.30;14.48;;;5.00;99.90;;;;;;5016831;28;20192;-42
2024/01/05 10:13:54;;;;;;;22.52;14.82;;;5.00;99.90;;;;;;5005934;28;20303;-46
2024/01/05 10:16:40;;;;;;;22.63;14.95;;;5.00;99.90;;;;;;5022379;28;21261;-42
2024/01/05 10:19:26;;;;;;;23.58;15.30;;;5.10;99.90;;;;;;5020271;28;20207;-40
2024/01/05 10:22:13;;;;;;;22.95;15.00;;;5.10;99.90;;;;;;5008927;28;20203;-44
2024/01/05 10:25:17;;;;;;;24.48;16.60;;;5.10;99.90;;;;;;5021455;28;20192;-46
2024/01/05 10:28:18;;;;;;;23.30;15.68;;;5.10;99.90;;;;;;5009974;28;20199;-45
2024/01/05 10:31:12;;;;;;;26.85;17.67;;;5.20;99.90;;;;;;5019402;28;20729;-46
2024/01/05 10:33:58;;;;;;;24.25;16.45;;;5.30;99.90;;;;;;5020895;28;20280;-46
2024/01/05 10:36:44;;;;;;;30.10;17.15;;;5.30;99.90;;;;;;5019455;28;20207;-44
2024/01/05 10:39:30;;;;;;;28.33;18.25;;;5.40;99.90;;;;;;4989777;28;21183;-43
2024/01/05 10:42:29;;;;;;;26.33;17.40;;;5.40;99.90;;;;;;5021761;28;20694;-43
2024/01/05 10:45:15;;;;;;;31.88;18.80;;;5.40;99.90;;;;;;5016407;28;20227;-43
2024/01/05 10:48:01;;;;;;;30.35;18.60;;;5.50;99.90;;;;;;5023127;28;20199;-43
2024/01/05 10:50:48;;;;;;;24.10;15.55;;;5.50;99.90;;;;;;5024117;28;20265;-43
2024/01/05 10:53:37;;;;;;;22.65;14.00;;;5.60;99.90;;;;;;5018882;28;20192;-43
2024/01/05 10:56:24;;;;;;;24.27;15.68;;;5.60;99.90;;;;;;5019444;28;20207;-46
2024/01/05 10:59:10;;;;;;;21.88;15.23;;;5.60;99.90;;;;;;5019339;28;20192;-44
2024/01/05 11:01:57;;;;;;;24.20;15.40;;;5.60;99.90;;;;;;5019776;28;20214;-42
2024/01/05 11:04:47;;;;;;;24.27;14.57;;;5.60;99.90;;;;;;5019113;28;20199;-45
2024/01/05 11:07:34;;;;;;;23.98;15.80;;;5.70;99.90;;;;;;5006497;28;20715;-44
2024/01/05 11:10:39;;;;;;;23.20;15.10;;;5.70;99.90;;;;;;5019272;28;20255;-44
2024/01/05 11:13:52;;;;;;;21.92;14.15;;;5.70;99.90;;;;;;5019152;28;20195;-48
2024/01/05 11:16:38;;;;;;;20.83;14.02;;;5.70;99.90;;;;;;5018368;28;20644;-42
2024/01/05 11:19:45;;;;;;;19.38;13.93;;;5.80;99.90;;;;;;5004264;28;20269;-42
2024/01/05 11:22:37;;;;;;;20.80;13.63;;;5.80;99.90;;;;;;5005816;28;20807;-41
2024/01/05 11:25:23;;;;;;;21.02;12.32;;;5.80;99.90;;;;;;5016950;28;20668;-43
2024/01/05 11:28:34;;;;;;;18.83;13.30;;;5.80;99.90;;;;;;5016345;28;20568;-43
2024/01/05 11:31:48;;;;;;;20.38;13.65;;;5.80;99.90;;;;;;5016889;28;20802;-45
2024/01/05 11:34:36;;;;;;;22.25;14.23;;;5.80;99.90;;;;;;5008296;28;20499;-48
2024/01/05 11:37:30;;;;;;;20.55;13.07;;;5.80;99.90;;;;;;5019387;28;20675;-45
2024/01/05 11:40:28;;;;;;;22.80;14.43;;;5.80;99.90;;;;;;5015953;28;20234;-45
2024/01/05 11:43:30;;;;;;;21.27;14.52;;;5.80;99.90;;;;;;5017942;28;20196;-47
2024/01/05 11:46:16;;;;;;;26.02;15.80;;;5.80;99.90;;;;;;5018325;28;20223;-41
2024/01/05 11:49:02;;;;;;;22.30;15.50;;;5.80;99.90;;;;;;5018778;28;20337;-43
2024/01/05 11:51:48;;;;;;;25.08;15.43;;;5.80;99.90;;;;;;5008382;28;20196;-44
2024/01/05 11:54:36;;;;;;;23.50;16.17;;;5.90;99.90;;;;;;5019355;28;20255;-46
2024/01/05 11:57:22;;;;;;;25.60;16.40;;;5.90;99.90;;;;;;5005998;28;20203;-45
2024/01/05 12:00:10;;;;;;;33.55;16.50;;;5.90;99.90;;;;;;5002780;28;20203;-43
2024/01/05 12:03:04;;;;;;;26.38;17.83;;;5.90;99.90;;;;;;5017983;28;20250;-44
2024/01/05 12:05:52;;;;;;;26.98;16.95;;;5.90;99.90;;;;;;5003077;28;20239;-44
2024/01/05 12:08:39;;;;;;;26.45;16.60;;;5.90;99.90;;;;;;5019655;28;20212;-39
2024/01/05 12:11:26;;;;;;;25.33;16.48;;;5.90;99.90;;;;;;5005638;28;20195;-43
2024/01/05 12:14:25;;;;;;;24.65;15.25;;;5.90;99.90;;;;;;5018060;28;20284;-43
2024/01/05 12:17:12;;;;;;;19.42;13.57;;;5.90;99.90;;;;;;5019713;28;20196;-37
2024/01/05 12:20:11;;;;;;;24.17;14.38;;;5.90;99.90;;;;;;4994326;28;20184;-43
2024/01/05 12:22:57;;;;;;;18.90;12.90;;;5.90;99.90;;;;;;5015162;28;20254;-42
2024/01/05 12:25:43;;;;;;;20.25;13.68;;;5.90;99.90;;;;;;5019494;28;20192;-45
2024/01/05 12:28:34;;;;;;;17.63;13.07;;;5.90;99.90;;;;;;5017634;28;20204;-42
2024/01/05 12:31:21;;;;;;;21.05;14.05;;;5.90;99.90;;;;;;5014846;28;20689;-43
2024/01/05 12:34:07;;;;;;;20.38;13.18;;;5.90;99.90;;;;;;5017695;28;20255;-43
2024/01/05 12:37:05;;;;;;;18.55;13.40;;;5.90;99.90;;;;;;5016725;28;20191;-39
2024/01/05 12:39:51;;;;;;;18.77;12.85;;;5.90;99.90;;;;;;5008345;28;20279;-44
2024/01/05 12:42:40;;;;;;;19.23;12.18;;;5.90;99.90;;;;;;5004776;28;20196;-41
2024/01/05 12:45:26;;;;;;;15.73;11.02;;;6.00;99.90;;;;;;5004692;28;20196;-41
2024/01/05 12:48:12;;;;;;;17.65;11.63;;;6.00;99.90;;;;;;5004524;28;20207;-50
2024/01/05 12:51:11;;;;;;;18.42;10.48;;;6.00;99.90;;;;;;5005203;28;20217;-41
2024/01/05 12:53:58;;;;;;;16.05;11.02;;;6.00;99.90;;;;;;5019258;28;20196;-46
2024/01/05 12:56:45;;;;;;;14.10;10.70;;;6.00;99.90;;;;;;5017614;28;20188;-49
2024/01/05 12:59:32;;;;;;;17.83;11.52;;;6.00;99.90;;;;;;5015064;28;20927;-47
2024/01/05 13:02:18;;;;;;;17.45;11.43;;;6.00;99.90;;;;;;5018337;28;20187;-42